Time;durP1;ratioP1;P1;durP2;ratioP2;P2;SDS_P1;SDS_P2;PMS_P1;PMS_P2;Temp;Humidity;BMP_temperature;BMP_pressure;BME280_temperature;BME280_humidity;BME280_pressure;Samples;Min_cycle;Max_cycle;Signal;HPM_P1;HPM_P2
2023/07/02 00:00:57;;;;;;;;;;;18.10;99.90;;;;;;7307202;19;11413;-74
2023/07/02 00:03:26;;;;;;;;;;;18.10;99.90;;;;;;7303809;19;9462;-75
2023/07/02 00:05:58;;;;;;;;;;;18.00;99.90;;;;;;7307038;19;9499;-74
2023/07/02 00:08:28;;;;;;;;;;;18.00;99.90;;;;;;7308231;19;9528;-74
2023/07/02 00:10:57;;;;;;;;;;;18.10;99.90;;;;;;7306382;19;9407;-74
2023/07/02 00:13:26;;;;;;;;;;;18.10;99.90;;;;;;7306917;19;9628;-74
2023/07/02 00:15:55;;;;;;;;;;;18.00;99.90;;;;;;7304567;19;8944;-74
2023/07/02 00:18:28;;;;;;;;;;;17.90;99.90;;;;;;7306603;19;10452;-74
2023/07/02 00:21:00;;;;;;;;;;;17.80;99.90;;;;;;7305619;19;9237;-74
2023/07/02 00:23:29;;;;;;;;;;;17.70;99.90;;;;;;7305010;19;9359;-74
2023/07/02 00:25:58;;;;;;;;;;;17.70;99.90;;;;;;7304525;19;9302;-74
2023/07/02 00:28:28;;;;;;;;;;;17.70;99.90;;;;;;7305522;19;9668;-74
2023/07/02 00:30:57;;;;;;;;;;;17.80;99.90;;;;;;7304895;19;9423;-74
2023/07/02 00:33:26;;;;;;;;;;;17.80;99.90;;;;;;7303572;19;11697;-74
2023/07/02 00:35:55;;;;;;;;;;;17.80;99.90;;;;;;7302108;19;9504;-74
2023/07/02 00:38:27;;;;;;;;;;;17.80;99.90;;;;;;7303815;19;9413;-74
2023/07/02 00:40:56;;;;;;;;;;;17.70;99.90;;;;;;7303003;19;9241;-74
2023/07/02 00:43:26;;;;;;;;;;;17.80;99.90;;;;;;7305145;19;9563;-74
2023/07/02 00:45:55;;;;;;;;;;;17.60;99.90;;;;;;7304961;19;9241;-74
2023/07/02 00:48:24;;;;;;;;;;;17.60;99.90;;;;;;7303091;19;9583;-74
2023/07/02 00:50:54;;;;;;;;;;;17.50;99.90;;;;;;7303094;19;9451;-74
2023/07/02 00:53:23;;;;;;;;;;;17.50;99.90;;;;;;7304241;19;9493;-75
2023/07/02 00:55:55;;;;;;;;;;;17.30;99.90;;;;;;7300816;19;9313;-74
2023/07/02 00:58:24;;;;;;;;;;;17.40;99.90;;;;;;7304351;19;9130;-74
2023/07/02 01:00:56;;;;;;;;;;;17.40;99.90;;;;;;7304686;19;9492;-74
2023/07/02 01:03:25;;;;;;;;;;;17.30;99.90;;;;;;7301546;19;9229;-74
2023/07/02 01:05:54;;;;;;;;;;;17.30;99.90;;;;;;7303457;19;9265;-74
2023/07/02 01:08:23;;;;;;;;;;;17.20;99.90;;;;;;7303072;19;9381;-74
2023/07/02 01:10:55;;;;;;;;;;;17.20;99.90;;;;;;7302166;19;9543;-74
2023/07/02 01:13:28;;;;;;;;;;;17.10;99.90;;;;;;7303568;19;9865;-74
2023/07/02 01:15:58;;;;;;;;;;;17.10;99.90;;;;;;7302576;19;9290;-74
2023/07/02 01:18:28;;;;;;;;;;;17.10;99.90;;;;;;7305774;19;9395;-74
2023/07/02 01:21:01;;;;;;;;;;;17.10;99.90;;;;;;7304361;19;9236;-74
2023/07/02 01:23:30;;;;;;;;;;;17.00;99.90;;;;;;7301835;19;11570;-74
2023/07/02 01:26:00;;;;;;;;;;;16.90;99.90;;;;;;7302720;19;9822;-74
2023/07/02 01:28:38;;;;;;;;;;;16.90;99.90;;;;;;7302554;19;9232;-74
2023/07/02 01:31:07;;;;;;;;;;;17.00;99.90;;;;;;7302767;19;9233;-74
2023/07/02 01:33:37;;;;;;;;;;;17.00;99.90;;;;;;7301500;19;10272;-74
2023/07/02 01:36:09;;;;;;;;;;;16.90;99.90;;;;;;7301345;19;9233;-74
2023/07/02 01:38:38;;;;;;;;;;;16.90;99.90;;;;;;7302524;19;9328;-74
2023/07/02 01:41:07;;;;;;;;;;;16.80;99.90;;;;;;7300500;19;8996;-74
2023/07/02 01:43:36;;;;;;;;;;;16.60;99.90;;;;;;7301822;19;9276;-74
2023/07/02 01:46:05;;;;;;;;;;;16.60;99.90;;;;;;7301709;19;11787;-74
2023/07/02 01:48:34;;;;;;;;;;;16.60;99.90;;;;;;7301038;19;9485;-74
2023/07/02 01:51:03;;;;;;;;;;;16.50;99.90;;;;;;7301064;19;10463;-74
2023/07/02 01:53:35;;;;;;;;;;;16.40;99.90;;;;;;7301427;19;9289;-74
2023/07/02 01:56:04;;;;;;;;;;;16.30;99.90;;;;;;7301447;19;9610;-74
2023/07/02 01:58:33;;;;;;;;;;;16.20;99.90;;;;;;7300612;19;8998;-74
2023/07/02 02:01:02;;;;;;;;;;;16.10;99.90;;;;;;7300542;19;10600;-74
2023/07/02 02:03:31;;;;;;;;;;;16.00;99.90;;;;;;7299416;19;9350;-74
2023/07/02 02:06:00;;;;;;;;;;;16.00;99.90;;;;;;7301609;19;9231;-74
2023/07/02 02:08:29;;;;;;;;;;;15.90;99.90;;;;;;7300394;19;11619;-74
2023/07/02 02:11:01;;;;;;;;;;;15.80;99.90;;;;;;7302743;19;9431;-74
2023/07/02 02:13:30;;;;;;;;;;;15.80;99.90;;;;;;7301834;19;9243;-74
2023/07/02 02:16:00;;;;;;;;;;;15.70;99.90;;;;;;7297481;19;9510;-74
2023/07/02 02:18:29;;;;;;;;;;;15.80;99.90;;;;;;7303528;19;9250;-74
2023/07/02 02:20:58;;;;;;;;;;;15.80;99.90;;;;;;7301925;19;9264;-74
2023/07/02 02:23:27;;;;;;;;;;;15.90;99.90;;;;;;7300587;19;9278;-74
2023/07/02 02:25:56;;;;;;;;;;;15.90;99.90;;;;;;7299586;19;9252;-74
2023/07/02 02:28:27;;;;;;;;;;;15.80;99.90;;;;;;7301340;19;9229;-74
2023/07/02 02:30:56;;;;;;;;;;;15.80;99.90;;;;;;7301482;19;9289;-74
2023/07/02 02:33:25;;;;;;;;;;;15.80;99.90;;;;;;7301075;19;10606;-74
2023/07/02 02:35:55;;;;;;;;;;;15.80;99.90;;;;;;7299637;19;9542;-74
2023/07/02 02:38:24;;;;;;;;;;;15.80;99.90;;;;;;7300906;19;9298;-74
2023/07/02 02:40:53;;;;;;;;;;;15.90;99.90;;;;;;7299477;19;9427;-74
2023/07/02 02:43:22;;;;;;;;;;;15.90;99.90;;;;;;7299452;19;9432;-74
2023/07/02 02:45:54;;;;;;;;;;;15.90;99.90;;;;;;7310951;19;9287;-74
2023/07/02 02:48:23;;;;;;;;;;;15.90;99.90;;;;;;7315624;19;9334;-74
2023/07/02 02:50:53;;;;;;;;;;;16.00;99.90;;;;;;7314620;19;9380;-74
2023/07/02 02:53:22;;;;;;;;;;;15.80;99.90;;;;;;7314689;19;9255;-74
2023/07/02 02:55:51;;;;;;;;;;;15.70;99.90;;;;;;7314158;19;9522;-74
2023/07/02 02:58:20;;;;;;;;;;;15.70;99.90;;;;;;7314165;19;9475;-74
2023/07/02 03:00:49;;;;;;;;;;;15.70;99.90;;;;;;7314839;19;9245;-74
2023/07/02 03:03:21;;;;;;;;;;;15.60;99.90;;;;;;7312264;19;9416;-74
2023/07/02 03:05:50;;;;;;;;;;;15.60;99.90;;;;;;7312643;19;9570;-74
2023/07/02 03:08:20;;;;;;;;;;;15.60;99.90;;;;;;7312926;19;9387;-74
2023/07/02 03:10:49;;;;;;;;;;;15.50;99.90;;;;;;7314133;19;9275;-74
2023/07/02 03:13:19;;;;;;;;;;;15.30;99.90;;;;;;7311738;19;9914;-74
2023/07/02 03:15:48;;;;;;;;;;;15.30;99.90;;;;;;7314134;19;9392;-73
2023/07/02 03:18:17;;;;;;;;;;;15.30;99.90;;;;;;7313698;19;9278;-74
2023/07/02 03:20:49;;;;;;;;;;;15.30;99.90;;;;;;7316348;19;9531;-74
2023/07/02 03:23:18;;;;;;;;;;;15.30;99.90;;;;;;7313512;19;9868;-74
2023/07/02 03:25:47;;;;;;;;;;;15.20;99.90;;;;;;7313049;19;8993;-74
2023/07/02 03:28:16;;;;;;;;;;;15.30;99.90;;;;;;7312750;19;9382;-75
2023/07/02 03:30:45;;;;;;;;;;;15.40;99.90;;;;;;7314464;19;9280;-74
2023/07/02 03:33:14;;;;;;;;;;;15.40;99.90;;;;;;7312165;19;9249;-74
2023/07/02 03:35:43;;;;;;;;;;;15.40;99.90;;;;;;7314924;19;8944;-74
2023/07/02 03:38:15;;;;;;;;;;;15.40;99.90;;;;;;7312339;19;10199;-74
2023/07/02 03:40:44;;;;;;;;;;;15.40;99.90;;;;;;7313580;19;9312;-74
2023/07/02 03:43:13;;;;;;;;;;;15.40;99.90;;;;;;7311905;19;9014;-74
2023/07/02 03:45:42;;;;;;;;;;;15.30;99.90;;;;;;7313892;19;9242;-73
2023/07/02 03:48:11;;;;;;;;;;;15.30;99.90;;;;;;7313408;19;8945;-74
2023/07/02 03:50:40;;;;;;;;;;;15.20;99.90;;;;;;7313035;19;9551;-73
2023/07/02 03:53:09;;;;;;;;;;;15.30;99.90;;;;;;7311983;19;9352;-74
2023/07/02 03:55:41;;;;;;;;;;;15.30;99.90;;;;;;7311546;19;9452;-74
2023/07/02 03:58:10;;;;;;;;;;;15.20;99.90;;;;;;7302637;19;10526;-74
2023/07/02 04:00:40;;;;;;;;;;;15.30;99.90;;;;;;7304518;19;9461;-74
2023/07/02 04:03:09;;;;;;;;;;;15.30;99.90;;;;;;7304557;19;11517;-73
2023/07/02 04:05:38;;;;;;;;;;;15.30;99.90;;;;;;7304235;19;10847;-74
2023/07/02 04:08:07;;;;;;;;;;;15.40;99.90;;;;;;7305444;19;9489;-74
2023/07/02 04:10:36;;;;;;;;;;;15.50;99.90;;;;;;7306537;19;9487;-74
2023/07/02 04:13:08;;;;;;;;;;;15.50;99.90;;;;;;7304539;19;8944;-74
2023/07/02 04:15:38;;;;;;;;;;;15.60;99.90;;;;;;7305598;19;13338;-74
2023/07/02 04:18:07;;;;;;;;;;;15.60;99.90;;;;;;7306124;19;10204;-74
2023/07/02 04:20:38;;;;;;;;;;;15.60;99.90;;;;;;7308546;19;9235;-74
2023/07/02 04:23:07;;;;;;;;;;;15.70;99.90;;;;;;7304686;19;9460;-73
2023/07/02 04:25:36;;;;;;;;;;;15.70;99.90;;;;;;7304502;19;9264;-74
2023/07/02 04:28:08;;;;;;;;;;;15.80;99.90;;;;;;7304156;19;9248;-74
2023/07/02 04:30:37;;;;;;;;;;;15.80;99.90;;;;;;7306519;19;9489;-73
2023/07/02 04:33:06;;;;;;;;;;;15.80;99.90;;;;;;7303902;19;9474;-74
2023/07/02 04:35:35;;;;;;;;;;;15.70;99.90;;;;;;7305975;19;9338;-74
2023/07/02 04:38:04;;;;;;;;;;;15.80;99.90;;;;;;7305079;19;9522;-74
2023/07/02 04:40:34;;;;;;;;;;;15.90;99.90;;;;;;7301762;19;11333;-74
2023/07/02 04:43:03;;;;;;;;;;;15.80;99.90;;;;;;7304499;19;9287;-74
2023/07/02 04:45:36;;;;;;;;;;;15.90;99.90;;;;;;7302567;19;9257;-74
2023/07/02 04:48:05;;;;;;;;;;;15.90;99.90;;;;;;7303622;19;9524;-74
2023/07/02 04:50:34;;;;;;;;;;;16.00;99.90;;;;;;7304690;19;10545;-74
2023/07/02 04:53:04;;;;;;;;;;;16.20;99.90;;;;;;7302872;19;9005;-73
2023/07/02 04:55:32;;;;;;;;;;;16.20;99.90;;;;;;7305276;19;9280;-73
2023/07/02 04:58:02;;;;;;;;;;;16.30;99.90;;;;;;7303856;19;9348;-74
2023/07/02 05:00:31;;;;;;;;;;;16.20;99.90;;;;;;7303541;19;9924;-74
2023/07/02 05:03:03;;;;;;;;;;;16.20;99.90;;;;;;7302516;19;9246;-74
2023/07/02 05:05:32;;;;;;;;;;;16.20;99.90;;;;;;7302938;19;9575;-74
2023/07/02 05:08:04;;;;;;;;;;;16.30;99.90;;;;;;7302058;19;9898;-74
2023/07/02 05:10:33;;;;;;;;;;;16.30;99.90;;;;;;7304361;19;9279;-74
2023/07/02 05:13:02;;;;;;;;;;;16.40;99.90;;;;;;7302241;19;9166;-74
2023/07/02 05:15:31;;;;;;;;;;;16.40;99.90;;;;;;7304837;19;9166;-74
2023/07/02 05:18:04;;;;;;;;;;;16.40;99.90;;;;;;7302141;19;9554;-74
2023/07/02 05:20:33;;;;;;;;;;;16.50;99.90;;;;;;7307447;19;10134;-74
2023/07/02 05:23:02;;;;;;;;;;;16.50;99.90;;;;;;7301759;19;9279;-74
2023/07/02 05:25:32;;;;;;;;;;;16.40;99.90;;;;;;7302570;19;9387;-74
2023/07/02 05:28:01;;;;;;;;;;;16.50;99.90;;;;;;7302271;19;11074;-74
2023/07/02 05:30:30;;;;;;;;;;;16.50;99.90;;;;;;7304611;19;9945;-74
2023/07/02 05:32:59;;;;;;;;;;;16.50;99.90;;;;;;7302084;19;10269;-74
2023/07/02 05:35:31;;;;;;;;;;;16.40;99.90;;;;;;7304589;19;11428;-74
2023/07/02 05:38:00;;;;;;;;;;;16.60;99.90;;;;;;7301797;19;8944;-74
2023/07/02 05:40:29;;;;;;;;;;;16.60;99.90;;;;;;7300414;19;9359;-74
2023/07/02 05:42:58;;;;;;;;;;;16.70;99.90;;;;;;7299870;19;10574;-74
2023/07/02 05:45:28;;;;;;;;;;;16.70;99.90;;;;;;7301741;19;8996;-74
2023/07/02 05:47:57;;;;;;;;;;;16.90;99.90;;;;;;7302478;19;9281;-74
2023/07/02 05:50:26;;;;;;;;;;;17.00;99.90;;;;;;7304573;19;9371;-74
2023/07/02 05:52:58;;;;;;;;;;;17.10;99.90;;;;;;7299607;19;9416;-73
2023/07/02 05:55:27;;;;;;;;;;;17.20;99.90;;;;;;7302842;19;9412;-74
2023/07/02 05:58:01;;;;;;;;;;;17.30;99.90;;;;;;7300451;19;9459;-73
2023/07/02 06:00:30;;;;;;;;;;;17.30;99.90;;;;;;7301836;19;8944;-74
2023/07/02 06:02:59;;;;;;;;;;;17.40;99.90;;;;;;7299574;19;10843;-74
2023/07/02 06:05:28;;;;;;;;;;;17.60;99.90;;;;;;7301795;19;10542;-74
2023/07/02 06:08:00;;;;;;;;;;;17.60;99.90;;;;;;7300880;19;9825;-74
2023/07/02 06:10:29;;;;;;;;;;;17.50;99.90;;;;;;7302669;19;9012;-74
2023/07/02 06:12:58;;;;;;;;;;;17.40;99.90;;;;;;7301581;19;9515;-74
2023/07/02 06:15:27;;;;;;;;;;;17.70;99.90;;;;;;7302073;19;10424;-74
2023/07/02 06:17:56;;;;;;;;;;;18.00;99.90;;;;;;7298203;19;9470;-74
2023/07/02 06:20:25;;;;;;;;;;;18.20;99.90;;;;;;7304512;19;11480;-74
2023/07/02 06:22:54;;;;;;;;;;;18.20;99.90;;;;;;7301550;19;9757;-74
2023/07/02 06:25:26;;;;;;;;;;;18.30;99.90;;;;;;7300336;19;9290;-74
2023/07/02 06:27:58;;;;;;;;;;;18.50;99.90;;;;;;7300509;19;9582;-74
2023/07/02 06:30:27;;;;;;;;;;;18.40;99.10;;;;;;7302047;19;10148;-74
2023/07/02 06:32:57;;;;;;;;;;;18.40;99.90;;;;;;7299942;19;9327;-74
2023/07/02 06:35:26;;;;;;;;;;;18.60;99.70;;;;;;7302611;19;9079;-74
2023/07/02 06:37:59;;;;;;;;;;;18.70;99.30;;;;;;7298287;19;9477;-74
2023/07/02 06:40:30;;;;;;;;;;;18.70;99.10;;;;;;7300190;19;10207;-74
2023/07/02 06:42:59;;;;;;;;;;;18.70;98.50;;;;;;7299815;19;9071;-74
2023/07/02 06:45:28;;;;;;;;;;;18.90;97.90;;;;;;7300800;19;9360;-74
2023/07/02 06:47:57;;;;;;;;;;;18.90;97.50;;;;;;7299624;19;9465;-74
2023/07/02 06:50:26;;;;;;;;;;;18.90;97.20;;;;;;7302278;19;9254;-74
2023/07/02 06:52:56;;;;;;;;;;;18.70;97.40;;;;;;7298721;19;9321;-74
2023/07/02 06:55:25;;;;;;;;;;;18.50;98.20;;;;;;7301701;19;11674;-74
2023/07/02 06:57:56;;;;;;;;;;;18.70;98.20;;;;;;7299569;19;9237;-74
2023/07/02 07:00:25;;;;;;;;;;;19.00;97.40;;;;;;7300421;19;9300;-74
2023/07/02 07:02:54;;;;;;;;;;;19.20;97.00;;;;;;7298762;19;10146;-74
2023/07/02 07:05:23;;;;;;;;;;;19.60;95.30;;;;;;7304416;19;9548;-74
2023/07/02 07:07:52;;;;;;;;;;;20.00;94.30;;;;;;7301270;19;9275;-74
2023/07/02 07:10:22;;;;;;;;;;;20.20;92.60;;;;;;7301240;19;9318;-74
2023/07/02 07:12:51;;;;;;;;;;;20.50;91.40;;;;;;7299868;19;9272;-74
2023/07/02 07:15:23;;;;;;;;;;;20.80;90.00;;;;;;7301143;19;9319;-74
2023/07/02 07:17:52;;;;;;;;;;;20.90;87.50;;;;;;7297342;19;11659;-74
2023/07/02 07:20:22;;;;;;;;;;;21.00;85.40;;;;;;7302912;19;10139;-74
2023/07/02 07:22:52;;;;;;;;;;;21.20;84.40;;;;;;7298584;19;9576;-74
2023/07/02 07:25:21;;;;;;;;;;;21.30;82.80;;;;;;7300192;19;10174;-74
2023/07/02 07:27:50;;;;;;;;;;;21.50;81.80;;;;;;7299325;19;11698;-74
2023/07/02 07:30:22;;;;;;;;;;;21.70;79.30;;;;;;7300290;19;10861;-74
2023/07/02 07:32:52;;;;;;;;;;;21.80;78.00;;;;;;7302168;19;10910;-74
2023/07/02 07:35:22;;;;;;;;;;;22.10;77.40;;;;;;7306648;19;9225;-74
2023/07/02 07:37:51;;;;;;;;;;;22.20;75.20;;;;;;7302153;19;10631;-74
2023/07/02 07:40:20;;;;;;;;;;;22.10;73.00;;;;;;7301033;19;9379;-74
2023/07/02 07:42:49;;;;;;;;;;;22.10;74.00;;;;;;7306233;19;9778;-74
2023/07/02 07:45:18;;;;;;;;;;;22.30;72.50;;;;;;7307420;19;10134;-74
2023/07/02 07:47:50;;;;;;;;;;;22.40;71.90;;;;;;7308376;19;9280;-74
2023/07/02 07:50:19;;;;;;;;;;;22.30;70.70;;;;;;7306843;19;9423;-74
2023/07/02 07:52:48;;;;;;;;;;;22.20;71.20;;;;;;7304618;19;10099;-74
2023/07/02 07:55:18;;;;;;;;;;;21.70;69.90;;;;;;7306186;19;9270;-74
2023/07/02 07:57:47;;;;;;;;;;;21.60;70.00;;;;;;7303295;19;9336;-74
2023/07/02 08:00:17;;;;;;;;;;;21.80;70.50;;;;;;7305145;19;10354;-74
2023/07/02 08:02:52;;;;;;;;;;;21.70;70.40;;;;;;7303154;19;9525;-74
2023/07/02 08:05:21;;;;;;;;;;;21.70;71.00;;;;;;7307724;19;9422;-74
2023/07/02 08:07:50;;;;;;;;;;;21.30;70.20;;;;;;7303901;19;9250;-74
2023/07/02 08:10:19;;;;;;;;;;;21.20;71.40;;;;;;7304202;19;9528;-74
2023/07/02 08:12:49;;;;;;;;;;;21.30;71.20;;;;;;7305443;19;12037;-74
2023/07/02 08:15:18;;;;;;;;;;;21.50;70.20;;;;;;7304884;19;10166;-74
2023/07/02 08:17:51;;;;;;;;;;;21.30;69.00;;;;;;7303263;19;9368;-74
2023/07/02 08:20:20;;;;;;;;;;;21.40;69.60;;;;;;7309427;19;9281;-74
2023/07/02 08:22:51;;;;;;;;;;;21.90;70.10;;;;;;7304827;19;9261;-74
2023/07/02 08:25:21;;;;;;;;;;;22.10;68.80;;;;;;7305271;19;9351;-74
2023/07/02 08:27:51;;;;;;;;;;;22.20;66.80;;;;;;7304981;19;9265;-74
2023/07/02 08:30:20;;;;;;;;;;;22.40;67.60;;;;;;7303941;19;9273;-74
2023/07/02 08:32:54;;;;;;;;;;;22.40;66.80;;;;;;7304734;19;9427;-74
2023/07/02 08:35:23;;;;;;;;;;;22.50;66.30;;;;;;7306394;19;9436;-74
2023/07/02 08:37:52;;;;;;;;;;;22.70;65.20;;;;;;7301855;19;9407;-74
2023/07/02 08:40:21;;;;;;;;;;;22.60;63.90;;;;;;7304115;19;8944;-74
2023/07/02 08:42:51;;;;;;;;;;;22.70;64.80;;;;;;7302317;19;9253;-74
2023/07/02 08:45:20;;;;;;;;;;;22.60;62.60;;;;;;7306474;19;9710;-74
2023/07/02 08:47:54;;;;;;;;;;;22.40;64.40;;;;;;7302056;19;9284;-74
2023/07/02 08:50:24;;;;;;;;;;;22.00;64.80;;;;;;7303713;19;9237;-74
2023/07/02 08:52:53;;;;;;;;;;;21.50;66.10;;;;;;7304305;19;9447;-74
2023/07/02 08:55:22;;;;;;;;;;;21.20;67.60;;;;;;7304912;19;9740;-74
2023/07/02 08:57:55;;;;;;;;;;;21.00;67.40;;;;;;7304584;19;9244;-74
2023/07/02 09:00:26;;;;;;;;;;;20.70;67.40;;;;;;7304228;19;9380;-74
2023/07/02 09:02:57;;;;;;;;;;;20.70;69.00;;;;;;7303594;19;10672;-74
2023/07/02 09:05:26;;;;;;;;;;;20.70;69.30;;;;;;7303363;19;9336;-74
2023/07/02 09:07:56;;;;;;;;;;;20.70;68.80;;;;;;7301859;19;9265;-74
2023/07/02 09:10:32;;;;;;;;;;;20.70;69.30;;;;;;7305411;19;9430;-74
2023/07/02 09:13:09;;;;;;;;;;;20.60;68.70;;;;;;7303095;19;9545;-74
2023/07/02 09:15:39;;;;;;;;;;;20.60;69.40;;;;;;7304552;19;9330;-74
2023/07/02 09:18:23;;;;;;;;;;;20.60;70.00;;;;;;7302325;19;9191;-74
2023/07/02 09:20:54;;;;;;;;;;;20.50;69.90;;;;;;7304128;19;9095;-74
2023/07/02 09:23:23;;;;;;;;;;;20.50;70.50;;;;;;7302199;19;9351;-74
2023/07/02 09:25:53;;;;;;;;;;;20.40;71.30;;;;;;7302359;19;9438;-74
2023/07/02 09:28:24;;;;;;;;;;;20.30;72.00;;;;;;7302867;19;11201;-74
2023/07/02 09:30:58;;;;;;;;;;;20.30;72.10;;;;;;7304859;19;8997;-74
2023/07/02 09:33:31;;;;;;;;;;;20.40;72.20;;;;;;7302971;19;9254;-74
2023/07/02 09:36:00;;;;;;;;;;;20.50;72.60;;;;;;7302928;19;9194;-74
2023/07/02 09:38:29;;;;;;;;;;;20.70;72.50;;;;;;7301095;19;11739;-74
2023/07/02 09:41:00;;;;;;;;;;;20.90;72.00;;;;;;7301732;19;9475;-74
2023/07/02 09:43:29;;;;;;;;;;;21.00;71.70;;;;;;7302425;19;9563;-74
2023/07/02 09:45:59;;;;;;;;;;;21.10;70.60;;;;;;7302310;19;9536;-74
2023/07/02 09:48:38;;;;;;;;;;;21.40;70.60;;;;;;7301147;19;9244;-74
2023/07/02 09:51:07;;;;;;;;;;;21.20;70.30;;;;;;7302916;19;9371;-74
2023/07/02 09:53:36;;;;;;;;;;;21.40;70.10;;;;;;7300064;19;9470;-74
2023/07/02 09:56:07;;;;;;;;;;;21.50;70.40;;;;;;7301345;19;9231;-74
2023/07/02 09:58:36;;;;;;;;;;;21.60;69.60;;;;;;7301216;19;9237;-74
2023/07/02 10:01:05;;;;;;;;;;;21.70;69.40;;;;;;7303045;19;9261;-74
2023/07/02 10:03:37;;;;;;;;;;;21.70;69.50;;;;;;7302158;19;9297;-74
2023/07/02 10:06:08;;;;;;;;;;;21.50;69.30;;;;;;7299655;19;9221;-74
2023/07/02 10:08:37;;;;;;;;;;;21.30;70.00;;;;;;7300915;19;10469;-74
2023/07/02 10:11:13;;;;;;;;;;;21.20;69.20;;;;;;7302617;19;10165;-74
2023/07/02 10:13:42;;;;;;;;;;;21.40;70.00;;;;;;7301100;19;9226;-74
2023/07/02 10:16:11;;;;;;;;;;;21.60;69.10;;;;;;7301658;19;11558;-74
2023/07/02 10:18:43;;;;;;;;;;;21.90;68.60;;;;;;7303712;19;9678;-74
2023/07/02 10:21:20;;;;;;;;;;;22.00;68.20;;;;;;7301899;19;9292;-74
2023/07/02 10:23:49;;;;;;;;;;;22.10;67.50;;;;;;7299655;19;9455;-74
2023/07/02 10:26:21;;;;;;;;;;;22.10;67.20;;;;;;7303976;19;10202;-74
2023/07/02 10:28:59;;;;;;;;;;;22.00;67.50;;;;;;7301216;19;10142;-74
2023/07/02 10:31:29;;;;;;;;;;;21.90;67.50;;;;;;7300557;19;9405;-74
2023/07/02 10:34:00;;;;;;;;;;;21.80;67.50;;;;;;7300586;19;10226;-74
2023/07/02 10:36:30;;;;;;;;;;;21.60;67.80;;;;;;7300749;19;10567;-74
2023/07/02 10:39:08;;;;;;;;;;;21.50;68.10;;;;;;7303638;19;10162;-74
2023/07/02 10:41:37;;;;;;;;;;;21.70;67.60;;;;;;7318472;19;10074;-74
2023/07/02 10:44:11;;;;;;;;;;;21.90;66.40;;;;;;7300525;19;9253;-74
2023/07/02 10:46:46;;;;;;;;;;;22.00;66.80;;;;;;7300443;19;9262;-74
2023/07/02 10:49:21;;;;;;;;;;;22.00;66.70;;;;;;7300018;19;9586;-74
2023/07/02 10:52:00;;;;;;;;;;;22.10;66.60;;;;;;7300623;19;9759;-74
2023/07/02 10:54:29;;;;;;;;;;;22.20;66.40;;;;;;7301432;19;9274;-74
2023/07/02 10:57:00;;;;;;;;;;;22.40;65.50;;;;;;7298759;19;9423;-73
2023/07/02 10:59:29;;;;;;;;;;;22.40;65.50;;;;;;7298451;19;9256;-74
2023/07/02 11:02:02;;;;;;;;;;;22.20;64.90;;;;;;7298885;19;9371;-74
2023/07/02 11:04:35;;;;;;;;;;;22.10;65.30;;;;;;7298908;19;9447;-74
2023/07/02 11:07:04;;;;;;;;;;;21.80;66.20;;;;;;7303532;19;9303;-74
2023/07/02 11:09:33;;;;;;;;;;;21.60;66.90;;;;;;7307700;19;9538;-74
2023/07/02 11:12:04;;;;;;;;;;;21.50;66.80;;;;;;7306582;19;9400;-74
2023/07/02 11:14:34;;;;;;;;;;;21.30;66.70;;;;;;7310389;19;9268;-73
2023/07/02 11:17:06;;;;;;;;;;;21.20;66.10;;;;;;7308325;19;9616;-74
2023/07/02 11:19:38;;;;;;;;;;;21.30;66.70;;;;;;7309779;19;8945;-74
2023/07/02 11:22:07;;;;;;;;;;;21.30;65.00;;;;;;7304584;19;9695;-74
2023/07/02 11:24:39;;;;;;;;;;;21.20;66.20;;;;;;7307305;19;9277;-74
2023/07/02 11:27:09;;;;;;;;;;;21.00;66.50;;;;;;7306912;19;8949;-74
2023/07/02 11:29:39;;;;;;;;;;;21.20;67.20;;;;;;7307916;19;9340;-74
2023/07/02 11:32:09;;;;;;;;;;;21.60;66.70;;;;;;7306310;19;11689;-74
2023/07/02 11:34:41;;;;;;;;;;;22.00;65.70;;;;;;7304521;19;9577;-74
2023/07/02 11:37:10;;;;;;;;;;;22.00;65.60;;;;;;7306602;19;9241;-74
2023/07/02 11:39:39;;;;;;;;;;;21.90;63.90;;;;;;7304166;19;9265;-74
2023/07/02 11:42:09;;;;;;;;;;;21.90;64.40;;;;;;7306320;19;9304;-74
2023/07/02 11:44:38;;;;;;;;;;;21.90;64.60;;;;;;7307850;19;9371;-74
2023/07/02 11:47:08;;;;;;;;;;;22.20;64.20;;;;;;7305675;19;9258;-74
2023/07/02 11:49:40;;;;;;;;;;;22.30;63.20;;;;;;7308944;19;9306;-74
2023/07/02 11:52:09;;;;;;;;;;;22.10;63.90;;;;;;7307817;19;9567;-74
2023/07/02 11:54:38;;;;;;;;;;;22.00;63.50;;;;;;7304566;19;10966;-74
2023/07/02 11:57:08;;;;;;;;;;;22.10;62.60;;;;;;7307458;19;10110;-74
2023/07/02 11:59:38;;;;;;;;;;;22.30;63.10;;;;;;7303933;19;9264;-74
2023/07/02 12:02:08;;;;;;;;;;;22.50;62.90;;;;;;7305815;19;9340;-74
2023/07/02 12:04:39;;;;;;;;;;;22.60;62.00;;;;;;7306704;19;9386;-74
2023/07/02 12:07:08;;;;;;;;;;;22.60;61.90;;;;;;7304520;19;10194;-74
2023/07/02 12:09:38;;;;;;;;;;;22.40;62.20;;;;;;7305478;19;9262;-74
2023/07/02 12:12:08;;;;;;;;;;;22.10;62.90;;;;;;7305562;19;9548;-75
2023/07/02 12:14:37;;;;;;;;;;;21.90;63.30;;;;;;7305887;19;9359;-74
2023/07/02 12:17:07;;;;;;;;;;;21.90;63.50;;;;;;7302273;19;10623;-74
2023/07/02 12:19:36;;;;;;;;;;;21.90;63.80;;;;;;7309856;19;9494;-74
2023/07/02 12:22:08;;;;;;;;;;;21.90;64.00;;;;;;7303522;19;11004;-74
2023/07/02 12:24:37;;;;;;;;;;;22.10;63.80;;;;;;7305325;19;9316;-74
2023/07/02 12:27:07;;;;;;;;;;;22.10;63.40;;;;;;7304558;19;9285;-74
2023/07/02 12:29:38;;;;;;;;;;;22.10;62.80;;;;;;7303894;19;9274;-74
2023/07/02 12:32:10;;;;;;;;;;;22.10;62.70;;;;;;7305389;19;9521;-74
2023/07/02 12:34:39;;;;;;;;;;;22.20;62.70;;;;;;7304108;19;9344;-74
2023/07/02 12:37:13;;;;;;;;;;;22.50;61.80;;;;;;7307469;19;9500;-74
2023/07/02 12:39:42;;;;;;;;;;;22.60;62.00;;;;;;7302655;19;9269;-74
2023/07/02 12:42:11;;;;;;;;;;;22.50;62.80;;;;;;7305097;19;9362;-74
2023/07/02 12:44:40;;;;;;;;;;;22.40;62.00;;;;;;7305024;19;9595;-74
2023/07/02 12:47:10;;;;;;;;;;;22.20;62.20;;;;;;7303094;19;10090;-74
2023/07/02 12:49:39;;;;;;;;;;;21.90;62.20;;;;;;7305803;19;9549;-74
2023/07/02 12:52:11;;;;;;;;;;;22.20;63.00;;;;;;7303339;19;9575;-74
2023/07/02 12:54:40;;;;;;;;;;;22.30;62.40;;;;;;7304808;19;8944;-74
2023/07/02 12:57:09;;;;;;;;;;;22.10;62.40;;;;;;7303821;19;11229;-74
2023/07/02 12:59:39;;;;;;;;;;;22.00;62.90;;;;;;7301942;19;9215;-74
2023/07/02 13:02:08;;;;;;;;;;;21.90;63.10;;;;;;7300871;19;9325;-74
2023/07/02 13:04:38;;;;;;;;;;;22.10;63.00;;;;;;7304249;19;9265;-74
2023/07/02 13:07:08;;;;;;;;;;;22.10;63.10;;;;;;7303266;19;9382;-74
2023/07/02 13:09:40;;;;;;;;;;;22.00;62.30;;;;;;7307980;19;9366;-74
2023/07/02 13:12:10;;;;;;;;;;;22.10;62.10;;;;;;7302326;19;9268;-74
2023/07/02 13:14:39;;;;;;;;;;;22.10;62.10;;;;;;7303300;19;9266;-74
2023/07/02 13:17:08;;;;;;;;;;;22.10;62.10;;;;;;7302637;19;9490;-74
2023/07/02 13:19:37;;;;;;;;;;;22.00;62.10;;;;;;7308301;19;9567;-74
2023/07/02 13:22:07;;;;;;;;;;;22.00;62.60;;;;;;7303122;19;8944;-74
2023/07/02 13:24:40;;;;;;;;;;;22.00;62.60;;;;;;7303197;19;9298;-74
2023/07/02 13:27:15;;;;;;;;;;;22.10;61.70;;;;;;7302737;19;9546;-74
2023/07/02 13:29:45;;;;;;;;;;;22.00;61.10;;;;;;7303814;19;9755;-74
2023/07/02 13:32:14;;;;;;;;;;;21.90;61.20;;;;;;7301071;19;9332;-74
2023/07/02 13:34:43;;;;;;;;;;;21.70;61.70;;;;;;7302681;19;9262;-74
2023/07/02 13:37:14;;;;;;;;;;;21.50;62.40;;;;;;7302167;19;9545;-74
2023/07/02 13:39:45;;;;;;;;;;;21.30;61.10;;;;;;7303058;19;9460;-74
2023/07/02 13:42:14;;;;;;;;;;;21.20;62.40;;;;;;7302283;19;11000;-74
2023/07/02 13:44:44;;;;;;;;;;;21.30;62.80;;;;;;7301856;19;9286;-74
2023/07/02 13:47:13;;;;;;;;;;;21.10;62.30;;;;;;7301812;19;9392;-74
2023/07/02 13:49:43;;;;;;;;;;;21.00;62.70;;;;;;7303443;19;11972;-74
2023/07/02 13:52:12;;;;;;;;;;;21.10;63.50;;;;;;7301266;19;10166;-74
2023/07/02 13:54:41;;;;;;;;;;;21.10;63.90;;;;;;7302130;19;11995;-74
2023/07/02 13:57:13;;;;;;;;;;;21.10;63.50;;;;;;7300543;19;9350;-74
2023/07/02 13:59:45;;;;;;;;;;;21.20;63.70;;;;;;7303571;19;10102;-74
2023/07/02 14:02:14;;;;;;;;;;;21.20;63.60;;;;;;7300893;19;11044;-74
2023/07/02 14:04:43;;;;;;;;;;;21.30;63.30;;;;;;7302583;19;9280;-74
2023/07/02 14:07:12;;;;;;;;;;;21.30;63.20;;;;;;7299853;19;9342;-74
2023/07/02 14:09:41;;;;;;;;;;;21.30;63.30;;;;;;7303823;19;9351;-74
2023/07/02 14:12:11;;;;;;;;;;;21.20;61.70;;;;;;7300244;19;10333;-74
2023/07/02 14:14:41;;;;;;;;;;;21.10;63.10;;;;;;7303808;19;9620;-74
2023/07/02 14:17:12;;;;;;;;;;;21.10;63.80;;;;;;7302789;19;9242;-74
2023/07/02 14:19:41;;;;;;;;;;;21.20;63.00;;;;;;7304244;19;9356;-74
2023/07/02 14:22:10;;;;;;;;;;;21.40;62.40;;;;;;7301053;19;9305;-74
2023/07/02 14:24:39;;;;;;;;;;;21.30;62.20;;;;;;7301131;19;9281;-74
2023/07/02 14:27:09;;;;;;;;;;;21.30;63.00;;;;;;7302185;19;9686;-74
2023/07/02 14:29:38;;;;;;;;;;;21.30;62.80;;;;;;7301889;19;9701;-74
2023/07/02 14:32:12;;;;;;;;;;;21.30;62.90;;;;;;7302210;19;11811;-74
2023/07/02 14:34:41;;;;;;;;;;;21.10;62.90;;;;;;7302099;19;11033;-74
2023/07/02 14:37:10;;;;;;;;;;;21.10;63.50;;;;;;7301411;19;9244;-74
2023/07/02 14:39:39;;;;;;;;;;;21.10;63.60;;;;;;7299173;19;9434;-74
2023/07/02 14:42:09;;;;;;;;;;;20.90;64.20;;;;;;7299262;19;9251;-74
2023/07/02 14:44:38;;;;;;;;;;;20.80;64.10;;;;;;7300272;19;9059;-74